METAR AND TAF INFORMATION
METAR FOR ENDU
ADDS - METARS form results

(1041 UTC 25 January 2021)
Data provider http://aviationweather.gov/metar/data/
 
METAR text: ENDU 251020Z 00000KT 9999 FEW040 M12/M17 Q1002 NOSIG RMK WIND 1100FT 15006KT WIND 2200FT 20010KT
Conditions at: ENDU (BARDUFOSS (CIV/M, NO) observed 1020 UTC 25 January 2021
Temperature: -12.0°C (10°F)
Dewpoint: -17.0°C ( 1°F) [RH = 66%]
Pressure (altimeter): 29.59 inches Hg (1002.0 mb)
Winds: calm
Visibility: 6 or more miles (10+ km)
Ceiling: at least 12,000 feet AGL
Clouds: few clouds at 4000 feet AGL
Weather: no significant weather observed at this time

METAR text: ENDU 250950Z VRB02KT 9999 FEW035 SCT050 M12/M17 Q1001 NOSIG RMK WIND 1100FT 14008KT WIND 2200FT 21010KT
Conditions at: ENDU (BARDUFOSS (CIV/M, NO) observed 0950 UTC 25 January 2021
Temperature: -12.0°C (10°F)
Dewpoint: -17.0°C ( 1°F) [RH = 66%]
Pressure (altimeter): 29.56 inches Hg (1001.0 mb)
Winds: variable direction winds at 2 MPH (2 knots; 1.0 m/s)
Visibility: 6 or more miles (10+ km)
Ceiling: at least 12,000 feet AGL
Clouds: few clouds at 3500 feet AGL
scattered clouds at 5000 feet AGL
Weather: no significant weather observed at this time

Forecast for: ENDU (BARDUFOSS (CIV/M, NO)
Text: TAF ENDU 2506/2606 VRB03KT 9999 FEW025 BKN035
Forecast period: 0600 UTC 25 January 2021 to 0600 UTC 26 January 2021
Forecast type: FROM: standard forecast or significant change
Winds: variable direction winds at 3 MPH (3 knots; 1.5 m/s)
Visibility: 6 or more miles (10+ km)
Ceiling: 3500 feet AGL
Clouds: few clouds at 2500 feet AGL
broken clouds at 3500 feet AGL
Weather: no significant weather forecast for this period

 AIRPORT MAP

 RUNWAY INFORMATION
Runway 10 Runway length 8015 ft Runway width 148 ft
Runway elevation 252 ft Runway displaced threshold 1880 ft Runway heading 109
Runway 28 Runway length 8015 ft Runway width 148 ft
Runway elevation 219 ft Runway displaced threshold 0 ft Runway heading 289

 AIRPORT FREQUENCIES
Type APP Name APP Frequency 118.8 MHZ
Type ATIS Name ATIS Frequency 129.725 MHZ
Type TWR Name TWR Frequency 118.1 MHZ

 AIRPORT NEAR NAVIGATION AIDS
Type TACAN Name Bardufoss Frequency 113400 KHZ
Type VOR-DME Name Bardufoss Frequency 114200 KHZ
Type NDB Name Sorreisa Frequency 338 KHZ
Type NDB Name Senja Frequency 414 KHZ
Type NDB Name Fossmo Frequency 371 KHZ
Type NDB Name Tiller Frequency 350 KHZ